logo
Rechercher aéroport 
image banner adimage banner adimage banner ad
image banner ad

YSJF - Sir John Falls (Gordon River)

Situé à Southwest, Australia

ICAO - , IATA -

Données fournies par Airmate  

Information générale

Coordonnées: S42°34'12" E145°41'23"
Élévation : 58 feet MSL.
Variation magnétique : 14° East
Voir autres Aéroports à Tasmania

Données opérationnelles

Special qualification required
Heure actuelle UTC:
Heure actuelle locale:
Météo à : - ( 0 km )
METAR: YBSU 240617Z AUTO 12011KT 6000 -RA SCT020 BKN030 BKN044 18/15 Q1023
Voir NOTAMs / SUP AIP / TFR affectant cet aéroport [VIEW]
Fréquences de communication: [VIEW]

Pistes:

Coordonnées de l'aéroport

Adresse: Southwest Australia

Vue satellite de YSJF